PWSweather.com
Personal Weather Stations
Station Observations
SD92115WX
El Cerrito Stoneybluff, San Diego, CA 92115

El Cerrito StoneybluffSan Diego, CA 92115

Lat: 32.754096, Lon: -117.066705

Elevation: 420

Station Type: Davis Vantage Vue

http://stoneybluff.com

High Low Average
Temperature 89.6°F32.0°C 70.0°F21.1°C 78.1°F25.6°C
Dew Point 70.7°F21.5°C 60.4°F15.8°C 66.8°F19.3°C
Winds 8.3 mph 13.4 kmh Calm Calm 2.0 mph WSW3.2 kmh WSW
Wind Gusts 15.9 mph25.6 kmh -- 5.0 mph8.0 kmh
Humidity 88% 41% 71%
Pressure 29.89 in1012.2 mb 29.80 in1009.1 mb -
Precipitation 0.00 in0.0 mm - -
Hour Temp Dew Point Humidity Winds Wind Gusts Pressure Precip Precip Rate Daily Precip Total
12:02 AM 71.1°F21.7°C 66.7°F19.3°C 86% Calm Calm -- 29.88 in1011.9 mb 0.00 in0.0 mm 0.00 in0.0 mm 0.00 in0.0 mm
12:07 AM 70.9°F21.6°C 66.6°F19.2°C 86% 0.4 mph WSW0.6 kmh WSW 2.0 mph3.2 kmh 29.88 in1011.9 mb 0.00 in0.0 mm 0.00 in0.0 mm 0.00 in0.0 mm
12:12 AM 70.9°F21.6°C 66.6°F19.2°C 86% Calm Calm -- 29.88 in1011.9 mb 0.00 in0.0 mm 0.00 in0.0 mm 0.00 in0.0 mm
12:17 AM 70.9°F21.6°C 66.6°F19.2°C 86% Calm Calm -- 29.88 in1011.9 mb 0.00 in0.0 mm 0.00 in0.0 mm 0.00 in0.0 mm
12:22 AM 70.9°F21.6°C 66.6°F19.2°C 86% Calm Calm 1.1 mph1.8 kmh 29.88 in1011.9 mb 0.00 in0.0 mm 0.00 in0.0 mm 0.00 in0.0 mm
12:27 AM 70.7°F21.5°C 66.4°F19.1°C 86% Calm Calm -- 29.88 in1011.9 mb 0.00 in0.0 mm 0.00 in0.0 mm 0.00 in0.0 mm
12:32 AM 70.9°F21.6°C 66.7°F19.3°C 87% Calm Calm -- 29.88 in1011.9 mb 0.00 in0.0 mm 0.00 in0.0 mm 0.00 in0.0 mm
12:37 AM 70.9°F21.6°C 66.7°F19.3°C 87% Calm Calm -- 29.88 in1011.9 mb 0.00 in0.0 mm 0.00 in0.0 mm 0.00 in0.0 mm
12:42 AM 70.9°F21.6°C 66.7°F19.3°C 87% Calm Calm -- 29.88 in1011.9 mb 0.00 in0.0 mm 0.00 in0.0 mm 0.00 in0.0 mm
12:47 AM 70.9°F21.6°C 66.7°F19.3°C 87% Calm Calm -- 29.88 in1011.9 mb 0.00 in0.0 mm 0.00 in0.0 mm 0.00 in0.0 mm
12:52 AM 70.5°F21.4°C 66.2°F19.0°C 86% Calm Calm -- 29.88 in1011.9 mb 0.00 in0.0 mm 0.00 in0.0 mm 0.00 in0.0 mm
12:57 AM 70.5°F21.4°C 66.4°F19.1°C 87% Calm Calm -- 29.88 in1011.9 mb 0.00 in0.0 mm 0.00 in0.0 mm 0.00 in0.0 mm
01:02 AM 70.5°F21.4°C 66.4°F19.1°C 87% Calm Calm -- 29.87 in1011.5 mb 0.00 in0.0 mm 0.00 in0.0 mm 0.00 in0.0 mm
01:07 AM 70.7°F21.5°C 66.6°F19.2°C 87% Calm Calm -- 29.87 in1011.5 mb 0.00 in0.0 mm 0.00 in0.0 mm 0.00 in0.0 mm
01:12 AM 70.7°F21.5°C 66.6°F19.2°C 87% Calm Calm -- 29.87 in1011.5 mb 0.00 in0.0 mm 0.00 in0.0 mm 0.00 in0.0 mm
01:17 AM 70.7°F21.5°C 66.6°F19.2°C 87% Calm Calm -- 29.87 in1011.5 mb 0.00 in0.0 mm 0.00 in0.0 mm 0.00 in0.0 mm
01:22 AM 70.9°F21.6°C 66.7°F19.3°C 87% Calm Calm -- 29.87 in1011.5 mb 0.00 in0.0 mm 0.00 in0.0 mm 0.00 in0.0 mm
01:27 AM 70.9°F21.6°C 66.7°F19.3°C 87% Calm Calm 1.1 mph1.8 kmh 29.87 in1011.5 mb 0.00 in0.0 mm 0.00 in0.0 mm 0.00 in0.0 mm
01:32 AM 71.1°F21.7°C 66.9°F19.4°C 87% Calm Calm -- 29.87 in1011.5 mb 0.00 in0.0 mm 0.00 in0.0 mm 0.00 in0.0 mm
01:37 AM 71.1°F21.7°C 66.9°F19.4°C 87% Calm Calm -- 29.86 in1011.2 mb 0.00 in0.0 mm 0.00 in0.0 mm 0.00 in0.0 mm
01:42 AM 70.9°F21.6°C 66.6°F19.2°C 86% Calm Calm -- 29.86 in1011.2 mb 0.00 in0.0 mm 0.00 in0.0 mm 0.00 in0.0 mm
01:47 AM 70.9°F21.6°C 66.6°F19.2°C 86% Calm Calm -- 29.86 in1011.2 mb 0.00 in0.0 mm 0.00 in0.0 mm 0.00 in0.0 mm
01:52 AM 70.9°F21.6°C 66.7°F19.3°C 87% Calm Calm -- 29.86 in1011.2 mb 0.00 in0.0 mm 0.00 in0.0 mm 0.00 in0.0 mm
01:57 AM 70.7°F21.5°C 66.6°F19.2°C 87% Calm Calm -- 29.86 in1011.2 mb 0.00 in0.0 mm 0.00 in0.0 mm 0.00 in0.0 mm
02:02 AM 70.5°F21.4°C 66.4°F19.1°C 87% Calm Calm -- 29.86 in1011.2 mb 0.00 in0.0 mm 0.00 in0.0 mm 0.00 in0.0 mm
02:07 AM 70.5°F21.4°C 66.4°F19.1°C 87% Calm Calm -- 29.86 in1011.2 mb 0.00 in0.0 mm 0.00 in0.0 mm 0.00 in0.0 mm
02:12 AM 70.5°F21.4°C 66.4°F19.1°C 87% Calm Calm -- 29.86 in1011.2 mb 0.00 in0.0 mm 0.00 in0.0 mm 0.00 in0.0 mm
02:17 AM 70.5°F21.4°C 66.4°F19.1°C 87% Calm Calm -- 29.85 in1010.8 mb 0.00 in0.0 mm 0.00 in0.0 mm 0.00 in0.0 mm
02:22 AM 70.5°F21.4°C 66.4°F19.1°C 87% Calm Calm -- 29.85 in1010.8 mb 0.00 in0.0 mm 0.00 in0.0 mm 0.00 in0.0 mm
02:27 AM 70.3°F21.3°C 66.2°F19.0°C 87% Calm Calm -- 29.85 in1010.8 mb 0.00 in0.0 mm 0.00 in0.0 mm 0.00 in0.0 mm
02:32 AM 70.3°F21.3°C 66.2°F19.0°C 87% Calm Calm -- 29.85 in1010.8 mb 0.00 in0.0 mm 0.00 in0.0 mm 0.00 in0.0 mm
02:37 AM 70.3°F21.3°C 66.2°F19.0°C 87% Calm Calm -- 29.85 in1010.8 mb 0.00 in0.0 mm 0.00 in0.0 mm 0.00 in0.0 mm
02:42 AM 70.3°F21.3°C 66.2°F19.0°C 87% Calm Calm -- 29.85 in1010.8 mb 0.00 in0.0 mm 0.00 in0.0 mm 0.00 in0.0 mm
02:47 AM 70.2°F21.2°C 66.0°F18.9°C 87% Calm Calm -- 29.85 in1010.8 mb 0.00 in0.0 mm 0.00 in0.0 mm 0.00 in0.0 mm
02:52 AM 70.2°F21.2°C 66.4°F19.1°C 88% Calm Calm -- 29.85 in1010.8 mb 0.00 in0.0 mm 0.00 in0.0 mm 0.00 in0.0 mm
02:57 AM 70.2°F21.2°C 66.4°F19.1°C 88% Calm Calm -- 29.85 in1010.8 mb 0.00 in0.0 mm 0.00 in0.0 mm 0.00 in0.0 mm
03:02 AM 70.2°F21.2°C 66.4°F19.1°C 88% Calm Calm -- 29.85 in1010.8 mb 0.00 in0.0 mm 0.00 in0.0 mm 0.00 in0.0 mm
03:07 AM 70.2°F21.2°C 66.4°F19.1°C 88% Calm Calm -- 29.85 in1010.8 mb 0.00 in0.0 mm 0.00 in0.0 mm 0.00 in0.0 mm
03:12 AM 70.2°F21.2°C 66.4°F19.1°C 88% Calm Calm -- 29.85 in1010.8 mb 0.00 in0.0 mm 0.00 in0.0 mm 0.00 in0.0 mm
03:17 AM 70.2°F21.2°C 66.4°F19.1°C 88% Calm Calm -- 29.85 in1010.8 mb 0.00 in0.0 mm 0.00 in0.0 mm 0.00 in0.0 mm
03:22 AM 70.0°F21.1°C 66.2°F19.0°C 88% Calm Calm -- 29.85 in1010.8 mb 0.00 in0.0 mm 0.00 in0.0 mm 0.00 in0.0 mm
03:27 AM 70.2°F21.2°C 66.4°F19.1°C 88% Calm Calm -- 29.85 in1010.8 mb 0.00 in0.0 mm 0.00 in0.0 mm 0.00 in0.0 mm
03:32 AM 70.2°F21.2°C 66.4°F19.1°C 88% Calm Calm -- 29.85 in1010.8 mb 0.00 in0.0 mm 0.00 in0.0 mm 0.00 in0.0 mm
03:37 AM 70.3°F21.3°C 66.6°F19.2°C 88% Calm Calm -- 29.85 in1010.8 mb 0.00 in0.0 mm 0.00 in0.0 mm 0.00 in0.0 mm
03:42 AM 70.2°F21.2°C 66.4°F19.1°C 88% Calm Calm -- 29.85 in1010.8 mb 0.00 in0.0 mm 0.00 in0.0 mm 0.00 in0.0 mm
03:47 AM 70.2°F21.2°C 66.4°F19.1°C 88% Calm Calm -- 29.85 in1010.8 mb 0.00 in0.0 mm 0.00 in0.0 mm 0.00 in0.0 mm
03:52 AM 70.2°F21.2°C 66.4°F19.1°C 88% Calm Calm 1.1 mph1.8 kmh 29.85 in1010.8 mb 0.00 in0.0 mm 0.00 in0.0 mm 0.00 in0.0 mm
03:57 AM 70.3°F21.3°C 66.6°F19.2°C 88% Calm Calm 1.1 mph1.8 kmh 29.85 in1010.8 mb 0.00 in0.0 mm 0.00 in0.0 mm 0.00 in0.0 mm
04:02 AM 70.3°F21.3°C 66.6°F19.2°C 88% Calm Calm -- 29.86 in1011.2 mb 0.00 in0.0 mm 0.00 in0.0 mm 0.00 in0.0 mm
04:07 AM 70.3°F21.3°C 66.6°F19.2°C 88% Calm Calm -- 29.86 in1011.2 mb 0.00 in0.0 mm 0.00 in0.0 mm 0.00 in0.0 mm
04:12 AM 70.3°F21.3°C 66.6°F19.2°C 88% Calm Calm -- 29.86 in1011.2 mb 0.00 in0.0 mm 0.00 in0.0 mm 0.00 in0.0 mm
04:17 AM 70.3°F21.3°C 66.6°F19.2°C 88% Calm Calm -- 29.86 in1011.2 mb 0.00 in0.0 mm 0.00 in0.0 mm 0.00 in0.0 mm
04:22 AM 70.2°F21.2°C 66.0°F18.9°C 87% Calm Calm -- 29.86 in1011.2 mb 0.00 in0.0 mm 0.00 in0.0 mm 0.00 in0.0 mm
04:27 AM 70.2°F21.2°C 66.0°F18.9°C 87% Calm Calm -- 29.86 in1011.2 mb 0.00 in0.0 mm 0.00 in0.0 mm 0.00 in0.0 mm
04:32 AM 70.0°F21.1°C 66.2°F19.0°C 88% Calm Calm -- 29.87 in1011.5 mb 0.00 in0.0 mm 0.00 in0.0 mm 0.00 in0.0 mm
04:37 AM 70.0°F21.1°C 66.2°F19.0°C 88% Calm Calm -- 29.86 in1011.2 mb 0.00 in0.0 mm 0.00 in0.0 mm 0.00 in0.0 mm
04:42 AM 70.0°F21.1°C 66.2°F19.0°C 88% Calm Calm -- 29.87 in1011.5 mb 0.00 in0.0 mm 0.00 in0.0 mm 0.00 in0.0 mm
04:47 AM 70.0°F21.1°C 66.2°F19.0°C 88% Calm Calm -- 29.87 in1011.5 mb 0.00 in0.0 mm 0.00 in0.0 mm 0.00 in0.0 mm
04:52 AM 70.0°F21.1°C 66.2°F19.0°C 88% Calm Calm -- 29.87 in1011.5 mb 0.00 in0.0 mm 0.00 in0.0 mm 0.00 in0.0 mm
04:57 AM 70.0°F21.1°C 66.2°F19.0°C 88% Calm Calm -- 29.87 in1011.5 mb 0.00 in0.0 mm 0.00 in0.0 mm 0.00 in0.0 mm
05:02 AM 70.0°F21.1°C 66.2°F19.0°C 88% Calm Calm -- 29.87 in1011.5 mb 0.00 in0.0 mm 0.00 in0.0 mm 0.00 in0.0 mm
05:07 AM 70.0°F21.1°C 66.2°F19.0°C 88% Calm Calm -- 29.87 in1011.5 mb 0.00 in0.0 mm 0.00 in0.0 mm 0.00 in0.0 mm
05:12 AM 70.0°F21.1°C 66.2°F19.0°C 88% Calm Calm 1.1 mph1.8 kmh 29.87 in1011.5 mb 0.00 in0.0 mm 0.00 in0.0 mm 0.00 in0.0 mm
05:17 AM 70.2°F21.2°C 66.4°F19.1°C 88% 0.2 mph NW0.3 kmh NW 2.0 mph3.2 kmh 29.87 in1011.5 mb 0.00 in0.0 mm 0.00 in0.0 mm 0.00 in0.0 mm
05:22 AM 70.2°F21.2°C 66.4°F19.1°C 88% Calm Calm 2.0 mph3.2 kmh 29.87 in1011.5 mb 0.00 in0.0 mm 0.00 in0.0 mm 0.00 in0.0 mm
05:27 AM 70.2°F21.2°C 66.4°F19.1°C 88% Calm Calm -- 29.87 in1011.5 mb 0.00 in0.0 mm 0.00 in0.0 mm 0.00 in0.0 mm
05:32 AM 70.0°F21.1°C 66.2°F19.0°C 88% Calm Calm -- 29.88 in1011.9 mb 0.00 in0.0 mm 0.00 in0.0 mm 0.00 in0.0 mm
05:37 AM 70.2°F21.2°C 66.4°F19.1°C 88% Calm Calm -- 29.88 in1011.9 mb 0.00 in0.0 mm 0.00 in0.0 mm 0.00 in0.0 mm
05:42 AM 70.2°F21.2°C 66.4°F19.1°C 88% Calm Calm -- 29.88 in1011.9 mb 0.00 in0.0 mm 0.00 in0.0 mm 0.00 in0.0 mm
05:47 AM 70.2°F21.2°C 66.4°F19.1°C 88% Calm Calm -- 29.88 in1011.9 mb 0.00 in0.0 mm 0.00 in0.0 mm 0.00 in0.0 mm
05:52 AM 70.2°F21.2°C 66.4°F19.1°C 88% Calm Calm -- 29.89 in1012.2 mb 0.00 in0.0 mm 0.00 in0.0 mm 0.00 in0.0 mm
05:57 AM 70.2°F21.2°C 66.4°F19.1°C 88% Calm Calm -- 29.89 in1012.2 mb 0.00 in0.0 mm 0.00 in0.0 mm 0.00 in0.0 mm
06:02 AM 70.3°F21.3°C 66.6°F19.2°C 88% Calm Calm -- 29.89 in1012.2 mb 0.00 in0.0 mm 0.00 in0.0 mm 0.00 in0.0 mm
06:07 AM 70.5°F21.4°C 66.7°F19.3°C 88% Calm Calm -- 29.89 in1012.2 mb 0.00 in0.0 mm 0.00 in0.0 mm 0.00 in0.0 mm
06:12 AM 70.9°F21.6°C 67.1°F19.5°C 88% Calm Calm 1.1 mph1.8 kmh 29.88 in1011.9 mb 0.00 in0.0 mm 0.00 in0.0 mm 0.00 in0.0 mm
06:17 AM 71.2°F21.8°C 67.5°F19.7°C 88% Calm Calm 1.1 mph1.8 kmh 29.89 in1012.2 mb 0.00 in0.0 mm 0.00 in0.0 mm 0.00 in0.0 mm
06:22 AM 71.4°F21.9°C 67.3°F19.6°C 87% Calm Calm -- 29.89 in1012.2 mb 0.00 in0.0 mm 0.00 in0.0 mm 0.00 in0.0 mm
06:27 AM 71.8°F22.1°C 67.6°F19.8°C 87% Calm Calm 1.1 mph1.8 kmh 29.89 in1012.2 mb 0.00 in0.0 mm 0.00 in0.0 mm 0.00 in0.0 mm
06:32 AM 72.0°F22.2°C 67.5°F19.7°C 86% 0.2 mph NE0.3 kmh NE 2.0 mph3.2 kmh 29.89 in1012.2 mb 0.00 in0.0 mm 0.00 in0.0 mm 0.00 in0.0 mm
06:37 AM 72.1°F22.3°C 67.6°F19.8°C 86% Calm Calm 2.0 mph3.2 kmh 29.89 in1012.2 mb 0.00 in0.0 mm 0.00 in0.0 mm 0.00 in0.0 mm
06:42 AM 72.5°F22.5°C 68.0°F20.0°C 86% Calm Calm 2.0 mph3.2 kmh 29.88 in1011.9 mb 0.00 in0.0 mm 0.00 in0.0 mm 0.00 in0.0 mm
06:47 AM 72.7°F22.6°C 67.8°F19.9°C 85% 0.2 mph NW0.3 kmh NW 2.0 mph3.2 kmh 29.89 in1012.2 mb 0.00 in0.0 mm 0.00 in0.0 mm 0.00 in0.0 mm
06:52 AM 72.7°F22.6°C 67.8°F19.9°C 85% Calm Calm 1.1 mph1.8 kmh 29.89 in1012.2 mb 0.00 in0.0 mm 0.00 in0.0 mm 0.00 in0.0 mm
06:57 AM 73.0°F22.8°C 68.2°F20.1°C 85% Calm Calm -- 29.89 in1012.2 mb 0.00 in0.0 mm 0.00 in0.0 mm 0.00 in0.0 mm
07:02 AM 73.4°F23.0°C 68.5°F20.3°C 85% Calm Calm -- 29.89 in1012.2 mb 0.00 in0.0 mm 0.00 in0.0 mm 0.00 in0.0 mm
07:07 AM 73.8°F23.2°C 68.5°F20.3°C 84% Calm Calm -- 29.88 in1011.9 mb 0.00 in0.0 mm 0.00 in0.0 mm 0.00 in0.0 mm
07:12 AM 73.9°F23.3°C 68.4°F20.2°C 83% Calm Calm 1.1 mph1.8 kmh 29.89 in1012.2 mb 0.00 in0.0 mm 0.00 in0.0 mm 0.00 in0.0 mm
07:17 AM 74.5°F23.6°C 68.9°F20.5°C 83% Calm Calm -- 29.89 in1012.2 mb 0.00 in0.0 mm 0.00 in0.0 mm 0.00 in0.0 mm
07:22 AM 74.8°F23.8°C 68.9°F20.5°C 82% Calm Calm 1.1 mph1.8 kmh 29.89 in1012.2 mb 0.00 in0.0 mm 0.00 in0.0 mm 0.00 in0.0 mm
07:27 AM 75.6°F24.2°C 69.3°F20.7°C 81% Calm Calm 1.1 mph1.8 kmh 29.89 in1012.2 mb 0.00 in0.0 mm 0.00 in0.0 mm 0.00 in0.0 mm
07:32 AM 76.1°F24.5°C 69.4°F20.8°C 80% Calm Calm 1.1 mph1.8 kmh 29.89 in1012.2 mb 0.00 in0.0 mm 0.00 in0.0 mm 0.00 in0.0 mm
07:37 AM 76.5°F24.7°C 68.7°F20.4°C 77% Calm Calm 1.1 mph1.8 kmh 29.89 in1012.2 mb 0.00 in0.0 mm 0.00 in0.0 mm 0.00 in0.0 mm
07:42 AM 76.5°F24.7°C 68.7°F20.4°C 77% Calm Calm 1.1 mph1.8 kmh 29.89 in1012.2 mb 0.00 in0.0 mm 0.00 in0.0 mm 0.00 in0.0 mm
07:47 AM 77.2°F25.1°C 69.1°F20.6°C 76% Calm Calm 1.1 mph1.8 kmh 29.89 in1012.2 mb 0.00 in0.0 mm 0.00 in0.0 mm 0.00 in0.0 mm
07:52 AM 77.2°F25.1°C 68.7°F20.4°C 75% 0.4 mph W0.6 kmh W 3.1 mph5.0 kmh 29.89 in1012.2 mb 0.00 in0.0 mm 0.00 in0.0 mm 0.00 in0.0 mm
07:57 AM 77.5°F25.3°C 68.9°F20.5°C 75% 0.2 mph WSW0.3 kmh WSW 2.0 mph3.2 kmh 29.89 in1012.2 mb 0.00 in0.0 mm 0.00 in0.0 mm 0.00 in0.0 mm
08:02 AM 78.3°F25.7°C 69.3°F20.7°C 74% 0.2 mph WNW0.3 kmh WNW 2.0 mph3.2 kmh 29.89 in1012.2 mb 0.00 in0.0 mm 0.00 in0.0 mm 0.00 in0.0 mm
08:07 AM 78.6°F25.9°C 69.3°F20.7°C 73% Calm Calm 2.0 mph3.2 kmh 29.89 in1012.2 mb 0.00 in0.0 mm 0.00 in0.0 mm 0.00 in0.0 mm
08:12 AM 79.2°F26.2°C 68.9°F20.5°C 71% Calm Calm 2.0 mph3.2 kmh 29.89 in1012.2 mb 0.00 in0.0 mm 0.00 in0.0 mm 0.00 in0.0 mm
08:17 AM 79.3°F26.3°C 68.7°F20.4°C 70% 1.6 mph WNW2.6 kmh WNW 5.4 mph8.7 kmh 29.89 in1012.2 mb 0.00 in0.0 mm 0.00 in0.0 mm 0.00 in0.0 mm
08:22 AM 79.3°F26.3°C 68.7°F20.4°C 70% Calm Calm 3.1 mph5.0 kmh 29.89 in1012.2 mb 0.00 in0.0 mm 0.00 in0.0 mm 0.00 in0.0 mm
08:27 AM 79.5°F26.4°C 68.9°F20.5°C 70% 0.2 mph W0.3 kmh W 3.1 mph5.0 kmh 29.89 in1012.2 mb 0.00 in0.0 mm 0.00 in0.0 mm 0.00 in0.0 mm
08:32 AM 79.9°F26.6°C 68.4°F20.2°C 68% 1.3 mph NW2.1 kmh NW 6.3 mph10.1 kmh 29.89 in1012.2 mb 0.00 in0.0 mm 0.00 in0.0 mm 0.00 in0.0 mm
08:37 AM 80.1°F26.7°C 68.9°F20.5°C 69% 2.7 mph WNW4.3 kmh WNW 5.4 mph8.7 kmh 29.89 in1012.2 mb 0.00 in0.0 mm 0.00 in0.0 mm 0.00 in0.0 mm
08:42 AM 80.4°F26.9°C 68.5°F20.3°C 67% 3.6 mph W5.8 kmh W 7.4 mph11.9 kmh 29.89 in1012.2 mb 0.00 in0.0 mm 0.00 in0.0 mm 0.00 in0.0 mm
08:47 AM 80.8°F27.1°C 68.0°F20.0°C 65% 0.2 mph W0.3 kmh W 6.3 mph10.1 kmh 29.89 in1012.2 mb 0.00 in0.0 mm 0.00 in0.0 mm 0.00 in0.0 mm
08:52 AM 81.3°F27.4°C 67.1°F19.5°C 62% 1.6 mph W2.6 kmh W 4.3 mph6.9 kmh 29.89 in1012.2 mb 0.00 in0.0 mm 0.00 in0.0 mm 0.00 in0.0 mm
08:57 AM 81.9°F27.7°C 68.0°F20.0°C 63% 2.0 mph SSE3.2 kmh SSE 5.4 mph8.7 kmh 29.89 in1012.2 mb 0.00 in0.0 mm 0.00 in0.0 mm 0.00 in0.0 mm
09:02 AM 82.9°F28.3°C 69.1°F20.6°C 63% 1.8 mph W2.9 kmh W 5.4 mph8.7 kmh 29.89 in1012.2 mb 0.00 in0.0 mm 0.00 in0.0 mm 0.00 in0.0 mm
09:07 AM 82.9°F28.3°C 68.2°F20.1°C 61% 2.7 mph SSE4.3 kmh SSE 8.5 mph13.7 kmh 29.89 in1012.2 mb 0.00 in0.0 mm 0.00 in0.0 mm 0.00 in0.0 mm
09:12 AM 83.7°F28.7°C 68.7°F20.4°C 61% 2.2 mph W3.5 kmh W 7.4 mph11.9 kmh 29.89 in1012.2 mb 0.00 in0.0 mm 0.00 in0.0 mm 0.00 in0.0 mm
09:17 AM 83.5°F28.6°C 68.2°F20.1°C 60% 2.9 mph SW4.7 kmh SW 5.4 mph8.7 kmh 29.89 in1012.2 mb 0.00 in0.0 mm 0.00 in0.0 mm 0.00 in0.0 mm
09:22 AM 83.8°F28.8°C 69.4°F20.8°C 62% 2.9 mph SW4.7 kmh SW 5.4 mph8.7 kmh 29.89 in1012.2 mb 0.00 in0.0 mm 0.00 in0.0 mm 0.00 in0.0 mm
09:27 AM 84.0°F28.9°C 70.0°F21.1°C 63% 1.6 mph SW2.6 kmh SW 7.4 mph11.9 kmh 29.88 in1011.9 mb 0.00 in0.0 mm 0.00 in0.0 mm 0.00 in0.0 mm
09:32 AM 84.0°F28.9°C 70.0°F21.1°C 63% 2.0 mph WSW3.2 kmh WSW 12.8 mph20.6 kmh 29.89 in1012.2 mb 0.00 in0.0 mm 0.00 in0.0 mm 0.00 in0.0 mm
09:37 AM 84.2°F29.0°C 70.7°F21.5°C 64% 4.3 mph SW6.9 kmh SW 7.4 mph11.9 kmh 29.88 in1011.9 mb 0.00 in0.0 mm 0.00 in0.0 mm 0.00 in0.0 mm
09:42 AM 84.0°F28.9°C 69.6°F20.9°C 62% 2.5 mph W4.0 kmh W 7.4 mph11.9 kmh 29.88 in1011.9 mb 0.00 in0.0 mm 0.00 in0.0 mm 0.00 in0.0 mm
09:47 AM 84.0°F28.9°C 69.6°F20.9°C 62% 4.3 mph SW6.9 kmh SW 7.4 mph11.9 kmh 29.89 in1012.2 mb 0.00 in0.0 mm 0.00 in0.0 mm 0.00 in0.0 mm
09:52 AM 84.0°F28.9°C 69.6°F20.9°C 62% 4.5 mph SW7.2 kmh SW 6.3 mph10.1 kmh 29.88 in1011.9 mb 0.00 in0.0 mm 0.00 in0.0 mm 0.00 in0.0 mm
09:57 AM 83.7°F28.7°C 69.3°F20.7°C 62% 5.4 mph NW8.7 kmh NW 8.5 mph13.7 kmh 29.89 in1012.2 mb 0.00 in0.0 mm 0.00 in0.0 mm 0.00 in0.0 mm
10:02 AM 83.7°F28.7°C 69.3°F20.7°C 62% 3.1 mph SSW5.0 kmh SSW 6.3 mph10.1 kmh 29.88 in1011.9 mb 0.00 in0.0 mm 0.00 in0.0 mm 0.00 in0.0 mm
10:07 AM 84.0°F28.9°C 69.6°F20.9°C 62% 3.1 mph WNW5.0 kmh WNW 6.3 mph10.1 kmh 29.88 in1011.9 mb 0.00 in0.0 mm 0.00 in0.0 mm 0.00 in0.0 mm
10:12 AM 84.2°F29.0°C 69.3°F20.7°C 61% 2.2 mph SSW3.5 kmh SSW 7.4 mph11.9 kmh 29.88 in1011.9 mb 0.00 in0.0 mm 0.00 in0.0 mm 0.00 in0.0 mm
10:17 AM 84.7°F29.3°C 69.3°F20.7°C 60% 3.1 mph NNW5.0 kmh NNW 8.5 mph13.7 kmh 29.88 in1011.9 mb 0.00 in0.0 mm 0.00 in0.0 mm 0.00 in0.0 mm
10:22 AM 85.5°F29.7°C 69.4°F20.8°C 59% 6.7 mph WSW10.8 kmh WSW 10.5 mph16.9 kmh 29.87 in1011.5 mb 0.00 in0.0 mm 0.00 in0.0 mm 0.00 in0.0 mm
10:27 AM 85.1°F29.5°C 69.6°F20.9°C 60% 4.0 mph NW6.4 kmh NW 9.6 mph15.4 kmh 29.87 in1011.5 mb 0.00 in0.0 mm 0.00 in0.0 mm 0.00 in0.0 mm
10:32 AM 84.7°F29.3°C 69.8°F21.0°C 61% 2.2 mph SW3.5 kmh SW 8.5 mph13.7 kmh 29.87 in1011.5 mb 0.00 in0.0 mm 0.00 in0.0 mm 0.00 in0.0 mm
10:37 AM 85.8°F29.9°C 70.3°F21.3°C 60% 0.2 mph SW0.3 kmh SW 4.3 mph6.9 kmh 29.87 in1011.5 mb 0.00 in0.0 mm 0.00 in0.0 mm 0.00 in0.0 mm
10:42 AM 86.5°F30.3°C 70.5°F21.4°C 59% 4.0 mph SW6.4 kmh SW 7.4 mph11.9 kmh 29.87 in1011.5 mb 0.00 in0.0 mm 0.00 in0.0 mm 0.00 in0.0 mm
10:47 AM 87.1°F30.6°C 70.0°F21.1°C 57% 2.9 mph SW4.7 kmh SW 8.5 mph13.7 kmh 29.87 in1011.5 mb 0.00 in0.0 mm 0.00 in0.0 mm 0.00 in0.0 mm
10:52 AM 87.4°F30.8°C 70.3°F21.3°C 57% 3.6 mph NW5.8 kmh NW 6.3 mph10.1 kmh 29.86 in1011.2 mb 0.00 in0.0 mm 0.00 in0.0 mm 0.00 in0.0 mm
10:57 AM 87.1°F30.6°C 70.0°F21.1°C 57% 2.0 mph W3.2 kmh W 8.5 mph13.7 kmh 29.86 in1011.2 mb 0.00 in0.0 mm 0.00 in0.0 mm 0.00 in0.0 mm
11:02 AM 88.0°F31.1°C 70.3°F21.3°C 56% 2.2 mph N3.5 kmh N 5.4 mph8.7 kmh 29.86 in1011.2 mb 0.00 in0.0 mm 0.00 in0.0 mm 0.00 in0.0 mm
11:07 AM 88.7°F31.5°C 69.4°F20.8°C 53% 3.8 mph W6.1 kmh W 8.5 mph13.7 kmh 29.86 in1011.2 mb 0.00 in0.0 mm 0.00 in0.0 mm 0.00 in0.0 mm
11:12 AM 88.2°F31.2°C 69.4°F20.8°C 54% 2.9 mph SSW4.7 kmh SSW 7.4 mph11.9 kmh 29.85 in1010.8 mb 0.00 in0.0 mm 0.00 in0.0 mm 0.00 in0.0 mm
11:17 AM 88.9°F31.6°C 69.6°F20.9°C 53% 2.0 mph W3.2 kmh W 6.3 mph10.1 kmh 29.85 in1010.8 mb 0.00 in0.0 mm 0.00 in0.0 mm 0.00 in0.0 mm
11:22 AM 88.7°F31.5°C 68.7°F20.4°C 52% 5.4 mph WNW8.7 kmh WNW 8.5 mph13.7 kmh 29.86 in1011.2 mb 0.00 in0.0 mm 0.00 in0.0 mm 0.00 in0.0 mm
11:27 AM 89.1°F31.7°C 69.1°F20.6°C 52% 3.4 mph W5.5 kmh W 6.3 mph10.1 kmh 29.85 in1010.8 mb 0.00 in0.0 mm 0.00 in0.0 mm 0.00 in0.0 mm
11:32 AM 89.4°F31.9°C 68.4°F20.2°C 50% 4.7 mph WNW7.6 kmh WNW 9.6 mph15.4 kmh 29.85 in1010.8 mb 0.00 in0.0 mm 0.00 in0.0 mm 0.00 in0.0 mm
11:37 AM 89.2°F31.8°C 68.7°F20.4°C 51% 3.1 mph SW5.0 kmh SW 9.6 mph15.4 kmh 29.85 in1010.8 mb 0.00 in0.0 mm 0.00 in0.0 mm 0.00 in0.0 mm
11:42 AM 89.6°F32.0°C 68.5°F20.3°C 50% 6.5 mph WSW10.5 kmh WSW 10.5 mph16.9 kmh 29.85 in1010.8 mb 0.00 in0.0 mm 0.00 in0.0 mm 0.00 in0.0 mm
11:47 AM 89.1°F31.7°C 68.0°F20.0°C 50% 3.8 mph NW6.1 kmh NW 9.6 mph15.4 kmh 29.85 in1010.8 mb 0.00 in0.0 mm 0.00 in0.0 mm 0.00 in0.0 mm
11:52 AM 88.3°F31.3°C 68.0°F20.0°C 51% 3.6 mph NW5.8 kmh NW 11.6 mph18.7 kmh 29.85 in1010.8 mb 0.00 in0.0 mm 0.00 in0.0 mm 0.00 in0.0 mm
11:57 AM 88.7°F31.5°C 67.6°F19.8°C 50% 6.3 mph SW10.1 kmh SW 13.9 mph22.4 kmh 29.85 in1010.8 mb 0.00 in0.0 mm 0.00 in0.0 mm 0.00 in0.0 mm
12:02 PM 87.8°F31.0°C 66.2°F19.0°C 49% 6.7 mph NW10.8 kmh NW 10.5 mph16.9 kmh 29.85 in1010.8 mb 0.00 in0.0 mm 0.00 in0.0 mm 0.00 in0.0 mm
12:07 PM 87.1°F30.6°C 66.7°F19.3°C 51% 5.4 mph NW8.7 kmh NW 10.5 mph16.9 kmh 29.85 in1010.8 mb 0.00 in0.0 mm 0.00 in0.0 mm 0.00 in0.0 mm
12:12 PM 87.3°F30.7°C 66.4°F19.1°C 50% 6.3 mph WSW10.1 kmh WSW 11.6 mph18.7 kmh 29.84 in1010.5 mb 0.00 in0.0 mm 0.00 in0.0 mm 0.00 in0.0 mm
12:17 PM 86.7°F30.4°C 65.8°F18.8°C 50% 7.4 mph W11.9 kmh W 11.6 mph18.7 kmh 29.84 in1010.5 mb 0.00 in0.0 mm 0.00 in0.0 mm 0.00 in0.0 mm
12:22 PM 87.1°F30.6°C 66.7°F19.3°C 51% 5.4 mph WNW8.7 kmh WNW 11.6 mph18.7 kmh 29.85 in1010.8 mb 0.00 in0.0 mm 0.00 in0.0 mm 0.00 in0.0 mm
12:27 PM 87.4°F30.8°C 66.6°F19.2°C 50% 5.1 mph W8.2 kmh W 11.6 mph18.7 kmh 29.84 in1010.5 mb 0.00 in0.0 mm 0.00 in0.0 mm 0.00 in0.0 mm
12:32 PM 87.4°F30.8°C 66.6°F19.2°C 50% 6.0 mph SW9.7 kmh SW 11.6 mph18.7 kmh 29.84 in1010.5 mb 0.00 in0.0 mm 0.00 in0.0 mm 0.00 in0.0 mm
12:37 PM 87.4°F30.8°C 65.3°F18.5°C 48% 6.7 mph NNE10.8 kmh NNE 11.6 mph18.7 kmh 29.84 in1010.5 mb 0.00 in0.0 mm 0.00 in0.0 mm 0.00 in0.0 mm
12:42 PM 87.4°F30.8°C 65.8°F18.8°C 49% 5.6 mph SSW9.0 kmh SSW 13.9 mph22.4 kmh 29.83 in1010.2 mb 0.00 in0.0 mm 0.00 in0.0 mm 0.00 in0.0 mm
12:47 PM 87.6°F30.9°C 64.2°F17.9°C 46% 6.7 mph WSW10.8 kmh WSW 11.6 mph18.7 kmh 29.83 in1010.2 mb 0.00 in0.0 mm 0.00 in0.0 mm 0.00 in0.0 mm
12:52 PM 87.6°F30.9°C 64.2°F17.9°C 46% 5.8 mph NW9.3 kmh NW 13.9 mph22.4 kmh 29.83 in1010.2 mb 0.00 in0.0 mm 0.00 in0.0 mm 0.00 in0.0 mm
12:57 PM 88.0°F31.1°C 63.3°F17.4°C 44% 7.2 mph WSW11.6 kmh WSW 11.6 mph18.7 kmh 29.83 in1010.2 mb 0.00 in0.0 mm 0.00 in0.0 mm 0.00 in0.0 mm
01:02 PM 88.2°F31.2°C 62.2°F16.8°C 42% 6.9 mph W11.1 kmh W 12.8 mph20.6 kmh 29.83 in1010.2 mb 0.00 in0.0 mm 0.00 in0.0 mm 0.00 in0.0 mm
01:07 PM 88.0°F31.1°C 64.0°F17.8°C 45% 8.3 mph WSW13.4 kmh WSW 14.8 mph23.8 kmh 29.82 in1009.8 mb 0.00 in0.0 mm 0.00 in0.0 mm 0.00 in0.0 mm
01:12 PM 87.6°F30.9°C 63.0°F17.2°C 44% 4.7 mph SW7.6 kmh SW 11.6 mph18.7 kmh 29.83 in1010.2 mb 0.00 in0.0 mm 0.00 in0.0 mm 0.00 in0.0 mm
01:17 PM 88.3°F31.3°C 63.7°F17.6°C 44% 4.7 mph WNW7.6 kmh WNW 11.6 mph18.7 kmh 29.83 in1010.2 mb 0.00 in0.0 mm 0.00 in0.0 mm 0.00 in0.0 mm
01:22 PM 88.3°F31.3°C 63.7°F17.6°C 44% 5.6 mph NW9.0 kmh NW 11.6 mph18.7 kmh 29.82 in1009.8 mb 0.00 in0.0 mm 0.00 in0.0 mm 0.00 in0.0 mm
01:27 PM 87.8°F31.0°C 63.9°F17.7°C 45% 6.0 mph W9.7 kmh W 13.9 mph22.4 kmh 29.82 in1009.8 mb 0.00 in0.0 mm 0.00 in0.0 mm 0.00 in0.0 mm
01:32 PM 87.4°F30.8°C 62.8°F17.1°C 44% 6.5 mph SW10.5 kmh SW 12.8 mph20.6 kmh 29.82 in1009.8 mb 0.00 in0.0 mm 0.00 in0.0 mm 0.00 in0.0 mm
01:37 PM 87.3°F30.7°C 62.6°F17.0°C 44% 7.6 mph WNW12.2 kmh WNW 12.8 mph20.6 kmh 29.82 in1009.8 mb 0.00 in0.0 mm 0.00 in0.0 mm 0.00 in0.0 mm
01:42 PM 87.1°F30.6°C 61.9°F16.6°C 43% 8.1 mph W13.0 kmh W 12.8 mph20.6 kmh 29.82 in1009.8 mb 0.00 in0.0 mm 0.00 in0.0 mm 0.00 in0.0 mm
01:47 PM 87.4°F30.8°C 61.5°F16.4°C 42% 7.6 mph SW12.2 kmh SW 13.9 mph22.4 kmh 29.83 in1010.2 mb 0.00 in0.0 mm 0.00 in0.0 mm 0.00 in0.0 mm
01:52 PM 87.1°F30.6°C 60.4°F15.8°C 41% 7.8 mph SW12.6 kmh SW 15.9 mph25.6 kmh 29.83 in1010.2 mb 0.00 in0.0 mm 0.00 in0.0 mm 0.00 in0.0 mm
01:57 PM 87.1°F30.6°C 61.9°F16.6°C 43% 7.6 mph NW12.2 kmh NW 15.9 mph25.6 kmh 29.83 in1010.2 mb 0.00 in0.0 mm 0.00 in0.0 mm 0.00 in0.0 mm
02:02 PM 86.7°F30.4°C 62.8°F17.1°C 45% 7.4 mph W11.9 kmh W 11.6 mph18.7 kmh 29.82 in1009.8 mb 0.00 in0.0 mm 0.00 in0.0 mm 0.00 in0.0 mm
02:07 PM 86.9°F30.5°C 64.2°F17.9°C 47% 5.4 mph SW8.7 kmh SW 11.6 mph18.7 kmh 29.82 in1009.8 mb 0.00 in0.0 mm 0.00 in0.0 mm 0.00 in0.0 mm
02:12 PM 87.3°F30.7°C 64.0°F17.8°C 46% 2.9 mph SW4.7 kmh SW 8.5 mph13.7 kmh 29.82 in1009.8 mb 0.00 in0.0 mm 0.00 in0.0 mm 0.00 in0.0 mm
02:17 PM 87.6°F30.9°C 64.9°F18.3°C 47% 6.3 mph SW10.1 kmh SW 12.8 mph20.6 kmh 29.82 in1009.8 mb 0.00 in0.0 mm 0.00 in0.0 mm 0.00 in0.0 mm
02:22 PM 87.1°F30.6°C 63.9°F17.7°C 46% 6.9 mph SW11.1 kmh SW 12.8 mph20.6 kmh 29.82 in1009.8 mb 0.00 in0.0 mm 0.00 in0.0 mm 0.00 in0.0 mm
02:27 PM 87.8°F31.0°C 63.9°F17.7°C 45% 7.4 mph W11.9 kmh W 11.6 mph18.7 kmh 29.82 in1009.8 mb 0.00 in0.0 mm 0.00 in0.0 mm 0.00 in0.0 mm
02:32 PM 87.6°F30.9°C 62.4°F16.9°C 43% 7.6 mph SW12.2 kmh SW 13.9 mph22.4 kmh 29.82 in1009.8 mb 0.00 in0.0 mm 0.00 in0.0 mm 0.00 in0.0 mm
02:37 PM 87.4°F30.8°C 62.2°F16.8°C 43% 6.0 mph WNW9.7 kmh WNW 11.6 mph18.7 kmh 29.82 in1009.8 mb 0.00 in0.0 mm 0.00 in0.0 mm 0.00 in0.0 mm
02:42 PM 87.3°F30.7°C 62.6°F17.0°C 44% 8.1 mph SW13.0 kmh SW 14.8 mph23.8 kmh 29.82 in1009.8 mb 0.00 in0.0 mm 0.00 in0.0 mm 0.00 in0.0 mm
02:47 PM 87.3°F30.7°C 64.6°F18.1°C 47% 6.5 mph SW10.5 kmh SW 14.8 mph23.8 kmh 29.82 in1009.8 mb 0.00 in0.0 mm 0.00 in0.0 mm 0.00 in0.0 mm
02:52 PM 87.3°F30.7°C 66.4°F19.1°C 50% 4.9 mph NW7.9 kmh NW 10.5 mph16.9 kmh 29.81 in1009.5 mb 0.00 in0.0 mm 0.00 in0.0 mm 0.00 in0.0 mm
02:57 PM 85.8°F29.9°C 66.7°F19.3°C 53% 3.8 mph WSW6.1 kmh WSW 12.8 mph20.6 kmh 29.81 in1009.5 mb 0.00 in0.0 mm 0.00 in0.0 mm 0.00 in0.0 mm
03:02 PM 86.7°F30.4°C 66.9°F19.4°C 52% 4.5 mph SW7.2 kmh SW 11.6 mph18.7 kmh 29.81 in1009.5 mb 0.00 in0.0 mm 0.00 in0.0 mm 0.00 in0.0 mm
03:07 PM 86.0°F30.0°C 64.6°F18.1°C 49% 5.1 mph SSW8.2 kmh SSW 12.8 mph20.6 kmh 29.81 in1009.5 mb 0.00 in0.0 mm 0.00 in0.0 mm 0.00 in0.0 mm
03:12 PM 86.9°F30.5°C 64.8°F18.2°C 48% 5.6 mph NW9.0 kmh NW 9.6 mph15.4 kmh 29.81 in1009.5 mb 0.00 in0.0 mm 0.00 in0.0 mm 0.00 in0.0 mm
03:17 PM 87.1°F30.6°C 62.6°F17.0°C 44% 5.6 mph SW9.0 kmh SW 12.8 mph20.6 kmh 29.81 in1009.5 mb 0.00 in0.0 mm 0.00 in0.0 mm 0.00 in0.0 mm
03:22 PM 86.7°F30.4°C 63.5°F17.5°C 46% 7.4 mph NW11.9 kmh NW 13.9 mph22.4 kmh 29.81 in1009.5 mb 0.00 in0.0 mm 0.00 in0.0 mm 0.00 in0.0 mm
03:27 PM 86.4°F30.2°C 61.9°F16.6°C 44% 5.1 mph SW8.2 kmh SW 15.9 mph25.6 kmh 29.81 in1009.5 mb 0.00 in0.0 mm 0.00 in0.0 mm 0.00 in0.0 mm
03:32 PM 86.5°F30.3°C 63.3°F17.4°C 46% 3.8 mph W6.1 kmh W 11.6 mph18.7 kmh 29.80 in1009.1 mb 0.00 in0.0 mm 0.00 in0.0 mm 0.00 in0.0 mm
03:37 PM 86.7°F30.4°C 65.8°F18.8°C 50% 4.9 mph W7.9 kmh W 9.6 mph15.4 kmh 29.80 in1009.1 mb 0.00 in0.0 mm 0.00 in0.0 mm 0.00 in0.0 mm
03:42 PM 86.4°F30.2°C 64.9°F18.3°C 49% 3.4 mph WNW5.5 kmh WNW 9.6 mph15.4 kmh 29.80 in1009.1 mb 0.00 in0.0 mm 0.00 in0.0 mm 0.00 in0.0 mm
03:47 PM 86.5°F30.3°C 66.2°F19.0°C 51% 4.9 mph WSW7.9 kmh WSW 8.5 mph13.7 kmh 29.80 in1009.1 mb 0.00 in0.0 mm 0.00 in0.0 mm 0.00 in0.0 mm
03:52 PM 86.5°F30.3°C 66.7°F19.3°C 52% 3.4 mph WNW5.5 kmh WNW 7.4 mph11.9 kmh 29.80 in1009.1 mb 0.00 in0.0 mm 0.00 in0.0 mm 0.00 in0.0 mm
03:57 PM 87.1°F30.6°C 67.8°F19.9°C 53% 4.0 mph WNW6.4 kmh WNW 8.5 mph13.7 kmh 29.80 in1009.1 mb 0.00 in0.0 mm 0.00 in0.0 mm 0.00 in0.0 mm
04:02 PM 87.1°F30.6°C 67.8°F19.9°C 53% 3.4 mph N5.5 kmh N 7.4 mph11.9 kmh 29.80 in1009.1 mb 0.00 in0.0 mm 0.00 in0.0 mm 0.00 in0.0 mm
04:07 PM 88.3°F31.3°C 68.0°F20.0°C 51% 3.8 mph WSW6.1 kmh WSW 7.4 mph11.9 kmh 29.80 in1009.1 mb 0.00 in0.0 mm 0.00 in0.0 mm 0.00 in0.0 mm
04:12 PM 88.3°F31.3°C 67.3°F19.6°C 50% 2.7 mph WNW4.3 kmh WNW 7.4 mph11.9 kmh 29.80 in1009.1 mb 0.00 in0.0 mm 0.00 in0.0 mm 0.00 in0.0 mm
04:17 PM 87.6°F30.9°C 67.8°F19.9°C 52% 4.3 mph WSW6.9 kmh WSW 8.5 mph13.7 kmh 29.81 in1009.5 mb 0.00 in0.0 mm 0.00 in0.0 mm 0.00 in0.0 mm
04:22 PM 87.3°F30.7°C 67.5°F19.7°C 52% 2.9 mph NW4.7 kmh NW 6.3 mph10.1 kmh 29.80 in1009.1 mb 0.00 in0.0 mm 0.00 in0.0 mm 0.00 in0.0 mm
04:27 PM 87.3°F30.7°C 67.5°F19.7°C 52% 5.4 mph W8.7 kmh W 9.6 mph15.4 kmh 29.81 in1009.5 mb 0.00 in0.0 mm 0.00 in0.0 mm 0.00 in0.0 mm
04:32 PM 86.7°F30.4°C 67.5°F19.7°C 53% 5.1 mph SSW8.2 kmh SSW 9.6 mph15.4 kmh 29.80 in1009.1 mb 0.00 in0.0 mm 0.00 in0.0 mm 0.00 in0.0 mm
04:37 PM 86.7°F30.4°C 68.0°F20.0°C 54% 4.5 mph WSW7.2 kmh WSW 8.5 mph13.7 kmh 29.80 in1009.1 mb 0.00 in0.0 mm 0.00 in0.0 mm 0.00 in0.0 mm
04:42 PM 86.5°F30.3°C 68.0°F20.0°C 54% 4.3 mph WNW6.9 kmh WNW 7.4 mph11.9 kmh 29.80 in1009.1 mb 0.00 in0.0 mm 0.00 in0.0 mm 0.00 in0.0 mm
04:47 PM 85.8°F29.9°C 67.8°F19.9°C 55% 3.4 mph WSW5.5 kmh WSW 8.5 mph13.7 kmh 29.80 in1009.1 mb 0.00 in0.0 mm 0.00 in0.0 mm 0.00 in0.0 mm
04:52 PM 85.8°F29.9°C 67.8°F19.9°C 55% 4.9 mph W7.9 kmh W 7.4 mph11.9 kmh 29.80 in1009.1 mb 0.00 in0.0 mm 0.00 in0.0 mm 0.00 in0.0 mm
04:57 PM 85.6°F29.8°C 67.1°F19.5°C 54% 5.4 mph WSW8.7 kmh WSW 9.6 mph15.4 kmh 29.81 in1009.5 mb 0.00 in0.0 mm 0.00 in0.0 mm 0.00 in0.0 mm
05:02 PM 85.3°F29.6°C 66.7°F19.3°C 54% 4.0 mph WNW6.4 kmh WNW 10.5 mph16.9 kmh 29.81 in1009.5 mb 0.00 in0.0 mm 0.00 in0.0 mm 0.00 in0.0 mm
05:07 PM 85.1°F29.5°C 66.6°F19.2°C 54% 5.6 mph WNW9.0 kmh WNW 10.5 mph16.9 kmh 29.81 in1009.5 mb 0.00 in0.0 mm 0.00 in0.0 mm 0.00 in0.0 mm
05:12 PM 84.6°F29.2°C 66.0°F18.9°C 54% 4.5 mph WSW7.2 kmh WSW 8.5 mph13.7 kmh 29.81 in1009.5 mb 0.00 in0.0 mm 0.00 in0.0 mm 0.00 in0.0 mm
05:17 PM 84.9°F29.4°C 65.8°F18.8°C 53% 4.7 mph SW7.6 kmh SW 7.4 mph11.9 kmh 29.80 in1009.1 mb 0.00 in0.0 mm 0.00 in0.0 mm 0.00 in0.0 mm
05:22 PM 84.0°F28.9°C 65.7°F18.7°C 54% 5.4 mph WSW8.7 kmh WSW 8.5 mph13.7 kmh 29.80 in1009.1 mb 0.00 in0.0 mm 0.00 in0.0 mm 0.00 in0.0 mm
05:27 PM 83.8°F28.8°C 64.9°F18.3°C 53% 5.1 mph WSW8.2 kmh WSW 7.4 mph11.9 kmh 29.80 in1009.1 mb 0.00 in0.0 mm 0.00 in0.0 mm 0.00 in0.0 mm
05:32 PM 84.0°F28.9°C 64.6°F18.1°C 52% 3.4 mph W5.5 kmh W 7.4 mph11.9 kmh 29.80 in1009.1 mb 0.00 in0.0 mm 0.00 in0.0 mm 0.00 in0.0 mm
05:37 PM 83.8°F28.8°C 64.9°F18.3°C 53% 1.3 mph NW2.1 kmh NW 5.4 mph8.7 kmh 29.81 in1009.5 mb 0.00 in0.0 mm 0.00 in0.0 mm 0.00 in0.0 mm
05:42 PM 83.1°F28.4°C 64.8°F18.2°C 54% 2.7 mph NNW4.3 kmh NNW 8.5 mph13.7 kmh 29.80 in1009.1 mb 0.00 in0.0 mm 0.00 in0.0 mm 0.00 in0.0 mm
05:47 PM 82.9°F28.3°C 64.6°F18.1°C 54% 4.3 mph W6.9 kmh W 7.4 mph11.9 kmh 29.80 in1009.1 mb 0.00 in0.0 mm 0.00 in0.0 mm 0.00 in0.0 mm
05:52 PM 82.2°F27.9°C 64.4°F18.0°C 55% 3.8 mph SW6.1 kmh SW 7.4 mph11.9 kmh 29.81 in1009.5 mb 0.00 in0.0 mm 0.00 in0.0 mm 0.00 in0.0 mm
05:57 PM 82.0°F27.8°C 64.8°F18.2°C 56% 3.1 mph WSW5.0 kmh WSW 7.4 mph11.9 kmh 29.81 in1009.5 mb 0.00 in0.0 mm 0.00 in0.0 mm 0.00 in0.0 mm
06:02 PM 81.1°F27.3°C 64.9°F18.3°C 58% 2.2 mph WNW3.5 kmh WNW 7.4 mph11.9 kmh 29.81 in1009.5 mb 0.00 in0.0 mm 0.00 in0.0 mm 0.00 in0.0 mm
06:07 PM 80.8°F27.1°C 65.7°F18.7°C 60% 3.8 mph W6.1 kmh W 6.3 mph10.1 kmh 29.81 in1009.5 mb 0.00 in0.0 mm 0.00 in0.0 mm 0.00 in0.0 mm
06:12 PM 80.1°F26.7°C 65.8°F18.8°C 62% 4.7 mph W7.6 kmh W 7.4 mph11.9 kmh 29.81 in1009.5 mb 0.00 in0.0 mm 0.00 in0.0 mm 0.00 in0.0 mm
06:17 PM 79.2°F26.2°C 65.8°F18.8°C 64% 3.4 mph S5.5 kmh S 7.4 mph11.9 kmh 29.81 in1009.5 mb 0.00 in0.0 mm 0.00 in0.0 mm 0.00 in0.0 mm
06:22 PM 78.8°F26.0°C 66.0°F18.9°C 65% 1.6 mph NW2.6 kmh NW 5.4 mph8.7 kmh 29.81 in1009.5 mb 0.00 in0.0 mm 0.00 in0.0 mm 0.00 in0.0 mm
06:27 PM 78.6°F25.9°C 66.4°F19.1°C 66% 2.2 mph WNW3.5 kmh WNW 4.3 mph6.9 kmh 29.81 in1009.5 mb 0.00 in0.0 mm 0.00 in0.0 mm 0.00 in0.0 mm
06:32 PM 78.4°F25.8°C 66.6°F19.2°C 67% 1.1 mph W1.8 kmh W 4.3 mph6.9 kmh 29.82 in1009.8 mb 0.00 in0.0 mm 0.00 in0.0 mm 0.00 in0.0 mm
06:37 PM 78.3°F25.7°C 66.4°F19.1°C 67% Calm Calm 2.0 mph3.2 kmh 29.83 in1010.2 mb 0.00 in0.0 mm 0.00 in0.0 mm 0.00 in0.0 mm
06:42 PM 78.1°F25.6°C 66.2°F19.0°C 67% 0.2 mph W0.3 kmh W 3.1 mph5.0 kmh 29.83 in1010.2 mb 0.00 in0.0 mm 0.00 in0.0 mm 0.00 in0.0 mm
06:47 PM 77.7°F25.4°C 66.4°F19.1°C 68% 3.8 mph SW6.1 kmh SW 5.4 mph8.7 kmh 29.83 in1010.2 mb 0.00 in0.0 mm 0.00 in0.0 mm 0.00 in0.0 mm
06:52 PM 77.5°F25.3°C 66.2°F19.0°C 68% 2.7 mph SW4.3 kmh SW 4.3 mph6.9 kmh 29.83 in1010.2 mb 0.00 in0.0 mm 0.00 in0.0 mm 0.00 in0.0 mm
06:57 PM 77.4°F25.2°C 66.0°F18.9°C 68% 2.0 mph SW3.2 kmh SW 5.4 mph8.7 kmh 29.83 in1010.2 mb 0.00 in0.0 mm 0.00 in0.0 mm 0.00 in0.0 mm
07:02 PM 77.2°F25.1°C 65.8°F18.8°C 68% 3.1 mph SW5.0 kmh SW 5.4 mph8.7 kmh 29.83 in1010.2 mb 0.00 in0.0 mm 0.00 in0.0 mm 0.00 in0.0 mm
07:07 PM 77.2°F25.1°C 65.8°F18.8°C 68% 0.9 mph SW1.4 kmh SW 5.4 mph8.7 kmh 29.83 in1010.2 mb 0.00 in0.0 mm 0.00 in0.0 mm 0.00 in0.0 mm
07:12 PM 76.8°F24.9°C 65.5°F18.6°C 68% 2.7 mph S4.3 kmh S 5.4 mph8.7 kmh 29.83 in1010.2 mb 0.00 in0.0 mm 0.00 in0.0 mm 0.00 in0.0 mm
07:17 PM 76.6°F24.8°C 65.7°F18.7°C 69% 3.4 mph SW5.5 kmh SW 6.3 mph10.1 kmh 29.83 in1010.2 mb 0.00 in0.0 mm 0.00 in0.0 mm 0.00 in0.0 mm
07:22 PM 76.5°F24.7°C 66.0°F18.9°C 70% 1.3 mph SW2.1 kmh SW 6.3 mph10.1 kmh 29.83 in1010.2 mb 0.00 in0.0 mm 0.00 in0.0 mm 0.00 in0.0 mm
07:27 PM 76.5°F24.7°C 66.4°F19.1°C 71% 0.2 mph SW0.3 kmh SW 3.1 mph5.0 kmh 29.84 in1010.5 mb 0.00 in0.0 mm 0.00 in0.0 mm 0.00 in0.0 mm
07:32 PM 76.3°F24.6°C 66.2°F19.0°C 71% 1.6 mph SW2.6 kmh SW 5.4 mph8.7 kmh 29.84 in1010.5 mb 0.00 in0.0 mm 0.00 in0.0 mm 0.00 in0.0 mm
07:37 PM 76.1°F24.5°C 66.0°F18.9°C 71% 4.3 mph WNW6.9 kmh WNW 8.5 mph13.7 kmh 29.85 in1010.8 mb 0.00 in0.0 mm 0.00 in0.0 mm 0.00 in0.0 mm
07:42 PM 75.9°F24.4°C 65.8°F18.8°C 71% 2.5 mph SW4.0 kmh SW 5.4 mph8.7 kmh 29.85 in1010.8 mb 0.00 in0.0 mm 0.00 in0.0 mm 0.00 in0.0 mm
07:47 PM 75.9°F24.4°C 66.6°F19.2°C 73% 2.0 mph SW3.2 kmh SW 5.4 mph8.7 kmh 29.85 in1010.8 mb 0.00 in0.0 mm 0.00 in0.0 mm 0.00 in0.0 mm
07:52 PM 75.7°F24.3°C 67.6°F19.8°C 76% 4.9 mph SW7.9 kmh SW 7.4 mph11.9 kmh 29.85 in1010.8 mb 0.00 in0.0 mm 0.00 in0.0 mm 0.00 in0.0 mm
07:57 PM 75.0°F23.9°C 67.6°F19.8°C 78% 5.8 mph SW9.3 kmh SW 9.6 mph15.4 kmh 29.85 in1010.8 mb 0.00 in0.0 mm 0.00 in0.0 mm 0.00 in0.0 mm
08:02 PM 74.7°F23.7°C 67.6°F19.8°C 79% 6.3 mph SW10.1 kmh SW 9.6 mph15.4 kmh 29.85 in1010.8 mb 0.00 in0.0 mm 0.00 in0.0 mm 0.00 in0.0 mm
08:07 PM 74.1°F23.4°C 67.6°F19.8°C 80% 4.9 mph SW7.9 kmh SW 9.6 mph15.4 kmh 29.86 in1011.2 mb 0.00 in0.0 mm 0.00 in0.0 mm 0.00 in0.0 mm
08:12 PM 73.9°F23.3°C 67.8°F19.9°C 81% 3.4 mph WSW5.5 kmh WSW 6.3 mph10.1 kmh 29.86 in1011.2 mb 0.00 in0.0 mm 0.00 in0.0 mm 0.00 in0.0 mm
08:17 PM 73.8°F23.2°C 67.6°F19.8°C 81% 2.7 mph SW4.3 kmh SW 5.4 mph8.7 kmh 29.86 in1011.2 mb 0.00 in0.0 mm 0.00 in0.0 mm 0.00 in0.0 mm
08:22 PM 73.6°F23.1°C 67.8°F19.9°C 82% 2.2 mph W3.5 kmh W 4.3 mph6.9 kmh 29.86 in1011.2 mb 0.00 in0.0 mm 0.00 in0.0 mm 0.00 in0.0 mm
08:27 PM 73.2°F22.9°C 67.5°F19.7°C 82% 0.4 mph SW0.6 kmh SW 5.4 mph8.7 kmh 29.86 in1011.2 mb 0.00 in0.0 mm 0.00 in0.0 mm 0.00 in0.0 mm
08:32 PM 73.2°F22.9°C 67.5°F19.7°C 82% Calm Calm 2.0 mph3.2 kmh 29.87 in1011.5 mb 0.00 in0.0 mm 0.00 in0.0 mm 0.00 in0.0 mm
08:37 PM 73.0°F22.8°C 67.3°F19.6°C 82% Calm Calm 3.1 mph5.0 kmh 29.86 in1011.2 mb 0.00 in0.0 mm 0.00 in0.0 mm 0.00 in0.0 mm
08:42 PM 73.0°F22.8°C 67.3°F19.6°C 82% Calm Calm 1.1 mph1.8 kmh 29.86 in1011.2 mb 0.00 in0.0 mm 0.00 in0.0 mm 0.00 in0.0 mm
08:47 PM 73.0°F22.8°C 67.3°F19.6°C 82% Calm Calm -- 29.87 in1011.5 mb 0.00 in0.0 mm 0.00 in0.0 mm 0.00 in0.0 mm
08:52 PM 72.9°F22.7°C 67.1°F19.5°C 82% Calm Calm -- 29.87 in1011.5 mb 0.00 in0.0 mm 0.00 in0.0 mm 0.00 in0.0 mm
08:57 PM 73.0°F22.8°C 67.3°F19.6°C 82% Calm Calm -- 29.87 in1011.5 mb 0.00 in0.0 mm 0.00 in0.0 mm 0.00 in0.0 mm
09:02 PM 73.0°F22.8°C 67.3°F19.6°C 82% Calm Calm -- 29.87 in1011.5 mb 0.00 in0.0 mm 0.00 in0.0 mm 0.00 in0.0 mm
09:07 PM 73.0°F22.8°C 66.9°F19.4°C 81% Calm Calm -- 29.87 in1011.5 mb 0.00 in0.0 mm 0.00 in0.0 mm 0.00 in0.0 mm
09:12 PM 73.2°F22.9°C 67.1°F19.5°C 81% 0.2 mph SW0.3 kmh SW 1.1 mph1.8 kmh 29.87 in1011.5 mb 0.00 in0.0 mm 0.00 in0.0 mm 0.00 in0.0 mm
09:17 PM 73.2°F22.9°C 67.1°F19.5°C 81% Calm Calm -- 29.87 in1011.5 mb 0.00 in0.0 mm 0.00 in0.0 mm 0.00 in0.0 mm
09:22 PM 73.2°F22.9°C 67.1°F19.5°C 81% Calm Calm -- 29.87 in1011.5 mb 0.00 in0.0 mm 0.00 in0.0 mm 0.00 in0.0 mm
09:27 PM 73.2°F22.9°C 67.1°F19.5°C 81% 0.4 mph SW0.6 kmh SW 2.0 mph3.2 kmh 29.87 in1011.5 mb 0.00 in0.0 mm 0.00 in0.0 mm 0.00 in0.0 mm
09:32 PM 73.0°F22.8°C 66.9°F19.4°C 81% 2.5 mph SSW4.0 kmh SSW 4.3 mph6.9 kmh 29.87 in1011.5 mb 0.00 in0.0 mm 0.00 in0.0 mm 0.00 in0.0 mm
09:37 PM 73.0°F22.8°C 66.9°F19.4°C 81% 1.6 mph SW2.6 kmh SW 5.4 mph8.7 kmh 29.87 in1011.5 mb 0.00 in0.0 mm 0.00 in0.0 mm 0.00 in0.0 mm
09:42 PM 73.0°F22.8°C 66.9°F19.4°C 81% 1.1 mph SW1.8 kmh SW 5.4 mph8.7 kmh 29.86 in1011.2 mb 0.00 in0.0 mm 0.00 in0.0 mm 0.00 in0.0 mm
09:47 PM 73.0°F22.8°C 66.9°F19.4°C 81% 0.2 mph SSW0.3 kmh SSW 3.1 mph5.0 kmh 29.86 in1011.2 mb 0.00 in0.0 mm 0.00 in0.0 mm 0.00 in0.0 mm
09:52 PM 72.9°F22.7°C 66.7°F19.3°C 81% 2.2 mph WSW3.5 kmh WSW 5.4 mph8.7 kmh 29.86 in1011.2 mb 0.00 in0.0 mm 0.00 in0.0 mm 0.00 in0.0 mm
09:57 PM 72.9°F22.7°C 66.7°F19.3°C 81% Calm Calm 4.3 mph6.9 kmh 29.86 in1011.2 mb 0.00 in0.0 mm 0.00 in0.0 mm 0.00 in0.0 mm
10:02 PM 72.9°F22.7°C 66.7°F19.3°C 81% Calm Calm 3.1 mph5.0 kmh 29.86 in1011.2 mb 0.00 in0.0 mm 0.00 in0.0 mm 0.00 in0.0 mm
10:07 PM 72.9°F22.7°C 66.7°F19.3°C 81% Calm Calm -- 29.86 in1011.2 mb 0.00 in0.0 mm 0.00 in0.0 mm 0.00 in0.0 mm
10:12 PM 72.9°F22.7°C 66.7°F19.3°C 81% Calm Calm -- 29.87 in1011.5 mb 0.00 in0.0 mm 0.00 in0.0 mm 0.00 in0.0 mm
10:17 PM 73.0°F22.8°C 67.6°F19.8°C 83% 0.9 mph NW1.4 kmh NW 2.0 mph3.2 kmh 29.86 in1011.2 mb 0.00 in0.0 mm 0.00 in0.0 mm 0.00 in0.0 mm
10:22 PM 73.0°F22.8°C 67.6°F19.8°C 83% Calm Calm 2.0 mph3.2 kmh 29.86 in1011.2 mb 0.00 in0.0 mm 0.00 in0.0 mm 0.00 in0.0 mm
10:27 PM 73.0°F22.8°C 67.6°F19.8°C 83% 0.4 mph WNW0.6 kmh WNW 2.0 mph3.2 kmh 29.86 in1011.2 mb 0.00 in0.0 mm 0.00 in0.0 mm 0.00 in0.0 mm
10:32 PM 72.9°F22.7°C 67.8°F19.9°C 84% Calm Calm 2.0 mph3.2 kmh 29.86 in1011.2 mb 0.00 in0.0 mm 0.00 in0.0 mm 0.00 in0.0 mm
10:37 PM 72.9°F22.7°C 67.8°F19.9°C 84% Calm Calm -- 29.86 in1011.2 mb 0.00 in0.0 mm 0.00 in0.0 mm 0.00 in0.0 mm
10:42 PM 72.7°F22.6°C 67.6°F19.8°C 84% Calm Calm -- 29.86 in1011.2 mb 0.00 in0.0 mm 0.00 in0.0 mm 0.00 in0.0 mm
10:47 PM 72.7°F22.6°C 67.6°F19.8°C 84% Calm Calm -- 29.86 in1011.2 mb 0.00 in0.0 mm 0.00 in0.0 mm 0.00 in0.0 mm
10:52 PM 72.7°F22.6°C 67.8°F19.9°C 85% Calm Calm -- 29.86 in1011.2 mb 0.00 in0.0 mm 0.00 in0.0 mm 0.00 in0.0 mm
10:57 PM 72.5°F22.5°C 67.5°F19.7°C 84% Calm Calm -- 29.86 in1011.2 mb 0.00 in0.0 mm 0.00 in0.0 mm 0.00 in0.0 mm
11:02 PM 72.5°F22.5°C 67.8°F19.9°C 85% Calm Calm -- 29.86 in1011.2 mb 0.00 in0.0 mm 0.00 in0.0 mm 0.00 in0.0 mm
11:07 PM 72.3°F22.4°C 67.6°F19.8°C 85% Calm Calm -- 29.86 in1011.2 mb 0.00 in0.0 mm 0.00 in0.0 mm 0.00 in0.0 mm
11:12 PM 72.3°F22.4°C 67.6°F19.8°C 85% Calm Calm -- 29.86 in1011.2 mb 0.00 in0.0 mm 0.00 in0.0 mm 0.00 in0.0 mm
11:17 PM 72.3°F22.4°C 67.6°F19.8°C 85% Calm Calm -- 29.86 in1011.2 mb 0.00 in0.0 mm 0.00 in0.0 mm 0.00 in0.0 mm
11:22 PM 72.1°F22.3°C 67.5°F19.7°C 85% Calm Calm -- 29.86 in1011.2 mb 0.00 in0.0 mm 0.00 in0.0 mm 0.00 in0.0 mm
11:27 PM 72.1°F22.3°C 67.5°F19.7°C 85% Calm Calm -- 29.85 in1010.8 mb 0.00 in0.0 mm 0.00 in0.0 mm 0.00 in0.0 mm
11:32 PM 72.1°F22.3°C 67.5°F19.7°C 85% Calm Calm -- 29.85 in1010.8 mb 0.00 in0.0 mm 0.00 in0.0 mm 0.00 in0.0 mm
11:37 PM 72.1°F22.3°C 67.5°F19.7°C 85% Calm Calm 1.1 mph1.8 kmh 29.85 in1010.8 mb 0.00 in0.0 mm 0.00 in0.0 mm 0.00 in0.0 mm
11:42 PM 72.1°F22.3°C 67.5°F19.7°C 85% Calm Calm 1.1 mph1.8 kmh 29.85 in1010.8 mb 0.00 in0.0 mm 0.00 in0.0 mm 0.00 in0.0 mm
11:47 PM 72.1°F22.3°C 67.5°F19.7°C 85% Calm Calm -- 29.85 in1010.8 mb 0.00 in0.0 mm 0.00 in0.0 mm 0.00 in0.0 mm
11:52 PM 72.1°F22.3°C 67.5°F19.7°C 85% Calm Calm -- 29.85 in1010.8 mb 0.00 in0.0 mm 0.00 in0.0 mm 0.00 in0.0 mm
11:57 PM 72.1°F22.3°C 67.5°F19.7°C 85% Calm Calm -- 29.85 in1010.8 mb 0.00 in0.0 mm 0.00 in0.0 mm 0.00 in0.0 mm